Time;durP1;ratioP1;P1;durP2;ratioP2;P2;SDS_P1;SDS_P2;PMS_P1;PMS_P2;Temp;Humidity;BMP_temperature;BMP_pressure;BME280_temperature;BME280_humidity;BME280_pressure;Samples;Min_cycle;Max_cycle;Signal;HPM_P1;HPM_P2
2023/09/11 00:00:44;;;;;;;27.67;15.40;;;21.40;99.90;;;;;;5032806;28;20040;-64
2023/09/11 00:03:09;;;;;;;23.55;15.80;;;21.40;99.90;;;;;;5050284;28;20124;-65
2023/09/11 00:05:35;;;;;;;32.30;17.17;;;21.30;99.90;;;;;;5036938;28;20048;-65
2023/09/11 00:08:01;;;;;;;29.67;16.60;;;21.30;99.90;;;;;;5023480;28;20518;-65
2023/09/11 00:10:26;;;;;;;25.88;17.15;;;21.30;99.90;;;;;;5049723;28;20048;-64
2023/09/11 00:12:52;;;;;;;26.55;16.58;;;21.30;99.90;;;;;;5051479;28;20032;-65
2023/09/11 00:15:17;;;;;;;30.77;17.73;;;21.20;99.90;;;;;;5042525;28;20045;-65
2023/09/11 00:17:43;;;;;;;32.70;16.98;;;21.30;99.90;;;;;;5050780;28;20029;-65
2023/09/11 00:20:09;;;;;;;36.75;17.17;;;21.20;99.90;;;;;;5041095;28;20051;-65
2023/09/11 00:22:35;;;;;;;27.73;16.60;;;21.20;99.90;;;;;;5045076;28;20033;-65
2023/09/11 00:25:01;;;;;;;34.88;17.00;;;21.20;99.90;;;;;;5032511;28;20110;-65
2023/09/11 00:27:27;;;;;;;29.98;16.98;;;21.20;99.90;;;;;;5035447;28;20045;-65
2023/09/11 00:29:52;;;;;;;27.77;17.85;;;21.10;99.90;;;;;;5049320;28;20037;-65
2023/09/11 00:32:18;;;;;;;20.33;16.30;;;21.20;99.90;;;;;;5038985;28;20061;-65
2023/09/11 00:34:44;;;;;;;33.05;17.42;;;21.10;99.90;;;;;;5040786;28;20445;-65
2023/09/11 00:37:09;;;;;;;33.70;16.83;;;21.10;99.90;;;;;;5048962;28;20112;-65
2023/09/11 00:39:35;;;;;;;30.38;17.58;;;21.20;99.90;;;;;;5048926;28;20043;-65
2023/09/11 00:42:01;;;;;;;28.58;17.27;;;21.10;99.90;;;;;;5046380;28;20048;-65
2023/09/11 00:44:26;;;;;;;27.40;16.55;;;21.10;99.90;;;;;;5050095;28;20045;-65
2023/09/11 00:46:53;;;;;;;33.47;17.60;;;21.10;99.90;;;;;;5050058;28;20041;-64
2023/09/11 00:49:20;;;;;;;28.95;17.70;;;21.00;99.90;;;;;;5023572;28;20041;-65
2023/09/11 00:51:47;;;;;;;27.65;16.25;;;21.00;99.90;;;;;;5032760;28;20045;-64
2023/09/11 00:54:14;;;;;;;27.33;17.63;;;21.00;99.90;;;;;;5049112;28;20033;-65
2023/09/11 00:56:40;;;;;;;28.50;16.95;;;21.00;99.90;;;;;;5050381;28;20037;-65
2023/09/11 00:59:06;;;;;;;33.53;17.60;;;21.00;99.90;;;;;;5048587;28;20041;-65
2023/09/11 01:01:32;;;;;;;28.13;17.30;;;20.90;99.90;;;;;;5034299;28;20557;-64
2023/09/11 01:03:58;;;;;;;27.83;16.80;;;21.00;99.90;;;;;;5043061;28;20052;-65
2023/09/11 01:06:24;;;;;;;30.83;17.45;;;20.90;99.90;;;;;;5049713;28;20064;-65
2023/09/11 01:08:55;;;;;;;28.38;17.60;;;20.90;99.90;;;;;;5047145;28;20072;-65
2023/09/11 01:11:21;;;;;;;29.83;17.63;;;20.90;99.90;;;;;;5047901;28;20115;-66
2023/09/11 01:13:47;;;;;;;28.75;16.20;;;20.90;99.90;;;;;;5049800;28;20037;-65
2023/09/11 01:16:44;;;;;;;29.90;17.05;;;20.90;99.90;;;;;;5049992;28;20029;-65
2023/09/11 01:19:43;;;;;;;27.77;16.98;;;20.80;99.90;;;;;;5019070;28;20068;-64
2023/09/11 01:22:34;;;;;;;32.15;17.60;;;20.80;99.90;;;;;;5040990;28;20059;-64
2023/09/11 01:25:26;;;;;;;26.52;18.08;;;20.80;99.90;;;;;;5045584;28;20561;-64
2023/09/11 01:28:07;;;;;;;34.63;17.67;;;20.80;99.90;;;;;;5029928;28;20130;-65
2023/09/11 01:30:35;;;;;;;31.38;17.88;;;20.80;99.90;;;;;;5028505;28;20041;-65
2023/09/11 01:33:00;;;;;;;29.80;18.38;;;20.70;99.90;;;;;;5049981;28;20033;-65
2023/09/11 01:35:26;;;;;;;33.67;17.80;;;20.80;99.90;;;;;;5049294;28;20041;-64
2023/09/11 01:37:55;;;;;;;33.22;18.15;;;20.70;99.90;;;;;;5049684;28;20033;-65
2023/09/11 01:40:23;;;;;;;29.60;17.52;;;20.70;99.90;;;;;;5046927;28;20438;-65
2023/09/11 01:42:53;;;;;;;29.45;18.75;;;20.70;99.90;;;;;;5046118;28;20505;-64
2023/09/11 01:45:20;;;;;;;30.83;18.08;;;20.60;99.90;;;;;;5046262;28;20479;-64
2023/09/11 01:47:50;;;;;;;30.88;18.08;;;20.70;99.90;;;;;;5049655;28;20033;-65
2023/09/11 01:50:18;;;;;;;29.55;17.38;;;20.70;99.90;;;;;;5047503;28;20107;-65
2023/09/11 01:52:48;;;;;;;31.67;17.58;;;20.70;99.90;;;;;;5040428;28;20033;-65
2023/09/11 01:55:14;;;;;;;28.52;17.08;;;20.60;99.90;;;;;;5049367;28;20036;-65
2023/09/11 01:57:40;;;;;;;35.72;17.85;;;20.60;99.90;;;;;;5049106;28;20045;-65
2023/09/11 02:00:07;;;;;;;28.95;17.52;;;20.60;99.90;;;;;;5047882;28;20076;-65
2023/09/11 02:02:32;;;;;;;35.70;18.20;;;20.60;99.90;;;;;;5053143;28;20044;-64
2023/09/11 02:04:58;;;;;;;36.35;17.70;;;20.60;99.90;;;;;;5053447;28;20041;-65
2023/09/11 02:07:23;;;;;;;30.75;18.05;;;20.60;99.90;;;;;;5035203;28;20387;-64
2023/09/11 02:09:49;;;;;;;30.80;17.67;;;20.50;99.90;;;;;;5051874;28;20045;-64
2023/09/11 02:12:14;;;;;;;30.35;17.55;;;20.50;99.90;;;;;;5053599;28;20384;-65
2023/09/11 02:14:40;;;;;;;26.77;16.75;;;20.50;99.90;;;;;;5045340;28;20025;-65
2023/09/11 02:17:06;;;;;;;33.13;17.85;;;20.50;99.90;;;;;;5053452;28;20514;-64
2023/09/11 02:19:32;;;;;;;31.23;18.48;;;20.50;99.90;;;;;;5051835;28;20086;-65
2023/09/11 02:21:58;;;;;;;32.30;17.48;;;20.50;99.90;;;;;;5053328;28;20040;-64
2023/09/11 02:24:23;;;;;;;23.38;17.33;;;20.40;99.90;;;;;;5052294;28;20555;-64
2023/09/11 02:26:50;;;;;;;27.10;16.90;;;20.40;99.90;;;;;;5053344;28;20041;-65
2023/09/11 02:29:15;;;;;;;29.80;17.83;;;20.40;99.90;;;;;;5052207;28;20037;-65
2023/09/11 02:34:12;;;;;;;26.40;16.90;;;20.40;99.90;;;;;;4989335;28;20065;-63
2023/09/11 02:36:38;;;;;;;32.85;18.17;;;20.30;99.90;;;;;;4977386;28;20400;-63
2023/09/11 02:39:04;;;;;;;30.88;18.25;;;20.40;99.90;;;;;;4979630;28;20046;-63
2023/09/11 02:41:29;;;;;;;36.33;18.77;;;20.30;99.90;;;;;;4993961;28;20045;-63
2023/09/11 02:43:55;;;;;;;33.05;18.45;;;20.30;99.90;;;;;;4993098;28;20038;-64
2023/09/11 02:46:21;;;;;;;28.92;17.83;;;20.30;99.90;;;;;;4975305;28;20137;-63
2023/09/11 02:48:47;;;;;;;31.77;18.45;;;20.20;99.90;;;;;;4990467;28;20076;-63
2023/09/11 02:51:13;;;;;;;30.15;18.63;;;20.30;99.90;;;;;;4975831;28;20046;-63
2023/09/11 02:53:39;;;;;;;37.03;18.58;;;20.30;99.90;;;;;;4983768;28;20416;-63
2023/09/11 02:56:05;;;;;;;38.05;19.40;;;20.30;99.90;;;;;;4992955;28;20030;-63
2023/09/11 02:58:31;;;;;;;31.60;18.50;;;20.30;99.90;;;;;;4993648;28;20089;-63
2023/09/11 03:01:04;;;;;;;29.20;18.85;;;20.30;99.90;;;;;;4991623;28;20540;-63
2023/09/11 03:03:30;;;;;;;37.83;18.90;;;20.30;99.90;;;;;;4993478;28;20392;-63
2023/09/11 03:05:58;;;;;;;28.05;19.42;;;20.20;99.90;;;;;;4992553;28;20038;-63
2023/09/11 03:08:24;;;;;;;29.90;19.20;;;20.30;99.90;;;;;;4993161;28;20054;-64
2023/09/11 03:10:50;;;;;;;31.75;18.35;;;20.20;99.90;;;;;;4990141;28;20481;-63
2023/09/11 03:13:16;;;;;;;27.40;18.88;;;20.20;99.90;;;;;;4992532;28;20053;-63
2023/09/11 03:15:44;;;;;;;30.35;18.33;;;20.20;99.90;;;;;;4982969;28;20045;-63
2023/09/11 03:18:10;;;;;;;33.65;18.80;;;20.20;99.90;;;;;;4979910;28;20042;-63
2023/09/11 03:20:36;;;;;;;36.15;19.40;;;20.20;99.90;;;;;;4991528;28;20512;-63
2023/09/11 03:23:02;;;;;;;27.55;18.05;;;20.20;99.90;;;;;;4993487;28;20050;-63
2023/09/11 03:25:28;;;;;;;31.83;18.30;;;20.20;99.90;;;;;;4985317;28;20039;-63
2023/09/11 03:27:54;;;;;;;30.75;18.77;;;20.10;99.90;;;;;;4992980;28;20499;-63
2023/09/11 03:30:20;;;;;;;27.67;17.60;;;20.20;99.90;;;;;;4979343;28;20066;-63
2023/09/11 03:32:45;;;;;;;34.60;19.15;;;20.20;99.90;;;;;;4992932;28;20061;-63
2023/09/11 03:35:11;;;;;;;28.80;18.48;;;20.10;99.90;;;;;;4974420;28;20038;-63
2023/09/11 03:37:37;;;;;;;36.42;19.33;;;20.20;99.90;;;;;;4992361;28;20146;-63
2023/09/11 03:40:13;;;;;;;34.67;18.50;;;20.20;99.90;;;;;;4988011;28;20496;-63
2023/09/11 03:42:39;;;;;;;30.65;18.75;;;20.10;99.90;;;;;;4988244;28;20050;-63
2023/09/11 03:45:07;;;;;;;34.72;19.02;;;20.10;99.90;;;;;;4987576;28;20492;-63
2023/09/11 03:47:33;;;;;;;33.45;18.50;;;20.10;99.90;;;;;;4991559;28;20046;-63
2023/09/11 03:50:00;;;;;;;36.47;19.15;;;20.10;99.90;;;;;;4973602;28;20034;-64
2023/09/11 03:52:26;;;;;;;32.83;19.50;;;20.10;99.90;;;;;;4992515;28;20122;-63
2023/09/11 03:54:51;;;;;;;29.70;19.05;;;20.10;99.90;;;;;;4979938;28;20142;-63
2023/09/11 03:57:17;;;;;;;32.65;20.00;;;20.10;99.90;;;;;;4974779;28;20472;-63
2023/09/11 03:59:42;;;;;;;34.80;20.23;;;20.10;99.90;;;;;;4976195;28;20105;-63
2023/09/11 04:02:08;;;;;;;33.28;19.10;;;20.00;99.90;;;;;;4992227;28;20045;-63
2023/09/11 04:04:34;;;;;;;37.63;18.98;;;20.10;99.90;;;;;;4978948;28;20042;-62
2023/09/11 04:06:59;;;;;;;32.33;19.13;;;20.10;99.90;;;;;;4990816;28;20436;-63
2023/09/11 04:09:25;;;;;;;38.60;19.33;;;20.10;99.90;;;;;;4983249;28;20038;-63
2023/09/11 04:11:50;;;;;;;31.20;19.35;;;20.00;99.90;;;;;;4983565;28;20042;-63
2023/09/11 04:14:16;;;;;;;38.13;19.77;;;20.00;99.90;;;;;;4972728;28;20482;-63
2023/09/11 04:16:42;;;;;;;31.67;19.17;;;19.90;99.90;;;;;;4975720;28;20038;-63
2023/09/11 04:19:07;;;;;;;28.65;19.15;;;20.00;99.90;;;;;;4988977;28;20178;-64
2023/09/11 04:21:33;;;;;;;35.67;19.33;;;20.00;99.90;;;;;;4975779;28;20042;-63
2023/09/11 04:23:58;;;;;;;31.83;19.05;;;20.00;99.90;;;;;;4972728;28;20181;-63
2023/09/11 04:26:24;;;;;;;30.15;19.25;;;20.00;99.90;;;;;;4991584;28;20039;-62
2023/09/11 04:28:50;;;;;;;35.47;19.00;;;19.90;99.90;;;;;;4990841;28;20051;-62
2023/09/11 04:31:15;;;;;;;38.72;19.73;;;20.00;99.90;;;;;;4981854;28;20512;-62
2023/09/11 04:33:41;;;;;;;36.63;19.95;;;19.90;99.90;;;;;;4991000;28;20033;-63
2023/09/11 04:36:06;;;;;;;30.25;19.75;;;20.00;99.90;;;;;;4976949;28;20588;-64
2023/09/11 04:38:32;;;;;;;25.52;18.10;;;20.00;99.90;;;;;;4989319;28;20037;-62
2023/09/11 04:40:58;;;;;;;33.10;19.73;;;20.00;99.90;;;;;;4989975;28;20419;-62
2023/09/11 04:43:24;;;;;;;29.42;18.52;;;20.00;99.90;;;;;;4991743;28;20113;-62
2023/09/11 04:45:50;;;;;;;33.10;19.25;;;20.00;99.90;;;;;;4990469;28;20042;-63
2023/09/11 04:48:15;;;;;;;35.15;19.15;;;20.00;99.90;;;;;;4991284;28;20037;-63
2023/09/11 04:50:41;;;;;;;38.58;20.13;;;19.90;99.90;;;;;;4997859;28;20472;-63
2023/09/11 04:53:07;;;;;;;34.20;19.80;;;19.90;99.90;;;;;;4991320;28;20042;-63
2023/09/11 04:55:32;;;;;;;33.72;20.27;;;19.90;99.90;;;;;;4977175;28;20093;-62
2023/09/11 04:57:58;;;;;;;34.95;19.23;;;19.90;99.90;;;;;;4987342;28;20419;-62
2023/09/11 05:00:27;;;;;;;33.13;19.40;;;19.90;99.90;;;;;;4984591;28;20031;-63
2023/09/11 05:02:52;;;;;;;30.17;19.85;;;19.90;99.90;;;;;;4974150;28;20038;-62
2023/09/11 05:05:18;;;;;;;34.92;19.92;;;19.90;99.90;;;;;;4985262;28;20451;-63
2023/09/11 05:07:44;;;;;;;34.53;19.42;;;19.90;99.90;;;;;;4974157;28;20144;-64
2023/09/11 05:10:09;;;;;;;32.20;19.27;;;19.90;99.90;;;;;;4975170;28;20038;-62
2023/09/11 05:12:35;;;;;;;35.03;19.02;;;19.90;99.90;;;;;;4976891;28;20042;-62
2023/09/11 05:15:02;;;;;;;36.08;20.00;;;19.80;99.90;;;;;;4988969;28;20074;-62
2023/09/11 05:17:27;;;;;;;35.35;20.13;;;19.90;99.90;;;;;;4969898;28;20121;-62
2023/09/11 05:19:53;;;;;;;31.58;18.80;;;19.90;99.90;;;;;;4989496;28;20149;-62
2023/09/11 05:22:19;;;;;;;29.27;19.05;;;19.90;99.90;;;;;;4982762;28;20441;-62
2023/09/11 05:24:44;;;;;;;31.98;19.77;;;19.90;99.90;;;;;;4986372;28;20073;-63
2023/09/11 05:27:10;;;;;;;31.50;18.80;;;20.00;99.90;;;;;;4972950;28;20053;-63
2023/09/11 05:29:36;;;;;;;29.17;19.40;;;20.00;99.90;;;;;;4971028;28;20080;-62
2023/09/11 05:32:02;;;;;;;33.03;19.73;;;20.00;99.90;;;;;;4983298;28;20097;-62
2023/09/11 05:34:28;;;;;;;38.45;20.25;;;20.00;99.90;;;;;;4972249;28;20046;-62
2023/09/11 05:36:54;;;;;;;37.17;20.00;;;20.00;99.90;;;;;;4989789;28;20386;-62
2023/09/11 05:39:19;;;;;;;31.48;20.00;;;19.90;99.90;;;;;;4989405;28;20049;-63
2023/09/11 05:41:45;;;;;;;36.08;20.10;;;20.00;99.90;;;;;;4988223;28;20038;-63
2023/09/11 05:44:11;;;;;;;32.40;20.15;;;20.00;99.90;;;;;;4975470;28;20488;-63
2023/09/11 05:46:37;;;;;;;29.65;19.77;;;20.10;99.90;;;;;;4983408;28;20413;-63
2023/09/11 05:49:02;;;;;;;33.30;19.30;;;20.00;99.90;;;;;;4990786;28;20035;-65
2023/09/11 05:51:28;;;;;;;36.75;20.02;;;20.10;99.90;;;;;;4990606;28;20092;-63
2023/09/11 05:53:54;;;;;;;35.08;20.75;;;19.90;99.90;;;;;;4993002;28;20046;-64
2023/09/11 05:56:19;;;;;;;33.50;20.33;;;20.10;99.90;;;;;;4971298;28;20050;-63
2023/09/11 05:58:45;;;;;;;42.42;20.45;;;20.10;99.90;;;;;;4971288;28;20047;-64
2023/09/11 06:01:10;;;;;;;33.42;19.70;;;20.10;99.90;;;;;;4986516;28;20488;-63
2023/09/11 06:03:36;;;;;;;33.70;20.50;;;20.10;99.90;;;;;;4980894;28;20396;-63
2023/09/11 06:06:02;;;;;;;36.60;20.58;;;20.10;99.90;;;;;;4975503;28;20042;-63
2023/09/11 06:08:28;;;;;;;29.35;20.27;;;20.10;99.90;;;;;;4989240;28;20513;-63
2023/09/11 06:10:53;;;;;;;30.80;20.80;;;20.10;99.90;;;;;;4972821;28;20096;-63
2023/09/11 06:13:19;;;;;;;29.80;20.48;;;20.20;99.90;;;;;;4988337;28;20049;-64
2023/09/11 06:15:45;;;;;;;34.88;20.80;;;20.20;99.90;;;;;;4988404;28;20105;-63
2023/09/11 06:18:10;;;;;;;29.65;20.45;;;20.10;99.90;;;;;;4990749;28;20132;-63
2023/09/11 06:20:37;;;;;;;28.70;20.02;;;20.20;99.90;;;;;;4994332;28;20049;-63
2023/09/11 06:23:02;;;;;;;34.58;21.00;;;20.20;99.90;;;;;;4988476;28;20038;-63
2023/09/11 06:25:28;;;;;;;30.50;20.70;;;20.30;99.90;;;;;;4989898;28;20476;-63
2023/09/11 06:27:53;;;;;;;28.15;21.17;;;20.30;99.90;;;;;;4990346;28;20121;-64
2023/09/11 06:30:19;;;;;;;32.67;22.13;;;20.30;99.90;;;;;;4989061;28;20050;-63
2023/09/11 06:32:45;;;;;;;38.08;21.58;;;20.40;99.90;;;;;;4985666;28;20034;-63
2023/09/11 06:35:10;;;;;;;35.45;21.95;;;20.40;99.90;;;;;;4989668;28;20448;-63
2023/09/11 06:37:37;;;;;;;33.40;20.90;;;20.50;99.90;;;;;;4979737;28;20053;-64
2023/09/11 06:40:07;;;;;;;33.47;21.02;;;20.50;99.90;;;;;;4989607;28;20046;-63
2023/09/11 06:42:33;;;;;;;30.67;20.63;;;20.50;99.90;;;;;;4977510;28;20073;-64
2023/09/11 06:44:59;;;;;;;34.53;21.95;;;20.60;99.90;;;;;;4985094;28;20481;-63
2023/09/11 06:47:25;;;;;;;28.50;20.08;;;20.60;99.90;;;;;;4983633;28;20088;-63
2023/09/11 06:49:50;;;;;;;32.72;21.55;;;20.60;99.90;;;;;;4974393;28;20042;-64
2023/09/11 06:52:16;;;;;;;27.50;19.83;;;20.60;99.90;;;;;;4975702;28;20038;-64
2023/09/11 06:54:42;;;;;;;29.90;20.48;;;20.70;99.90;;;;;;4973159;28;20077;-63
2023/09/11 06:57:07;;;;;;;32.42;21.38;;;20.70;99.90;;;;;;4992514;28;20070;-64
2023/09/11 06:59:34;;;;;;;32.28;21.58;;;20.80;99.90;;;;;;4983006;28;20125;-64
2023/09/11 07:01:59;;;;;;;32.28;20.95;;;20.80;99.90;;;;;;4988675;28;20483;-63
2023/09/11 07:04:25;;;;;;;31.10;20.40;;;20.90;99.90;;;;;;4984509;28;20046;-64
2023/09/11 07:06:51;;;;;;;34.17;21.75;;;20.90;99.90;;;;;;4975785;28;20046;-63
2023/09/11 07:09:17;;;;;;;35.25;21.45;;;20.90;99.90;;;;;;4990399;28;20046;-65
2023/09/11 07:11:42;;;;;;;28.02;20.35;;;21.00;99.90;;;;;;4993397;28;20145;-63
2023/09/11 07:14:12;;;;;;;33.05;20.65;;;20.90;99.90;;;;;;4975105;28;20057;-63
2023/09/11 07:16:38;;;;;;;31.38;19.70;;;21.00;99.90;;;;;;4972068;28;21214;-63
2023/09/11 07:19:04;;;;;;;32.35;21.13;;;21.10;99.90;;;;;;4992741;28;20144;-63
2023/09/11 07:21:29;;;;;;;29.55;19.75;;;21.10;99.90;;;;;;4976788;28;20054;-63
2023/09/11 07:23:55;;;;;;;28.95;19.33;;;21.20;99.90;;;;;;4990433;28;20096;-63
2023/09/11 07:26:20;;;;;;;31.35;18.73;;;21.20;99.90;;;;;;4985998;28;20046;-64
2023/09/11 07:28:53;;;;;;;29.27;18.88;;;21.20;99.90;;;;;;4984109;28;20084;-64
2023/09/11 07:31:19;;;;;;;32.25;18.67;;;21.30;99.90;;;;;;4986553;28;20619;-63
2023/09/11 07:33:44;;;;;;;27.65;19.60;;;21.30;99.90;;;;;;4979611;28;20117;-64
2023/09/11 07:36:10;;;;;;;32.95;19.58;;;21.40;99.90;;;;;;4982260;28;20042;-64
2023/09/11 07:38:35;;;;;;;32.25;18.63;;;21.40;99.90;;;;;;4964930;28;20141;-64
2023/09/11 07:41:01;;;;;;;30.98;19.17;;;21.50;99.90;;;;;;4992482;28;20038;-63
2023/09/11 07:43:26;;;;;;;28.75;19.10;;;21.50;99.90;;;;;;4973230;28;20362;-64
2023/09/11 07:45:52;;;;;;;32.53;19.48;;;21.60;99.90;;;;;;4987873;28;20038;-64
2023/09/11 07:48:18;;;;;;;26.50;17.98;;;21.70;99.90;;;;;;4989750;28;20038;-65
2023/09/11 07:50:43;;;;;;;28.27;18.92;;;21.70;99.90;;;;;;4984640;28;20046;-64
2023/09/11 07:53:09;;;;;;;27.23;17.33;;;21.70;99.90;;;;;;4961397;28;21938;-64
2023/09/11 07:55:38;;;;;;;35.15;18.00;;;21.80;99.90;;;;;;4989558;28;20123;-64
2023/09/11 07:58:03;;;;;;;26.15;17.50;;;21.80;99.90;;;;;;4975224;28;20141;-64
2023/09/11 08:00:30;;;;;;;31.25;18.70;;;21.90;99.90;;;;;;4970255;28;20169;-64
2023/09/11 08:02:56;;;;;;;24.58;17.17;;;21.90;99.90;;;;;;4964967;28;20543;-63
2023/09/11 08:05:22;;;;;;;31.58;17.63;;;22.00;99.90;;;;;;4988050;28;20097;-65
2023/09/11 08:07:50;;;;;;;27.05;17.67;;;22.00;99.90;;;;;;4994224;28;20109;-64
2023/09/11 08:10:16;;;;;;;32.65;17.67;;;22.20;99.90;;;;;;4991910;28;20046;-64
2023/09/11 08:12:42;;;;;;;32.00;17.42;;;22.20;99.90;;;;;;4981895;28;20416;-64
2023/09/11 08:15:08;;;;;;;26.27;18.20;;;22.30;99.90;;;;;;4980480;28;20065;-65
2023/09/11 08:17:33;;;;;;;24.15;18.63;;;22.40;99.90;;;;;;4978336;28;20050;-64
2023/09/11 08:19:59;;;;;;;27.70;18.92;;;22.50;99.90;;;;;;4986862;28;20034;-64
2023/09/11 08:22:25;;;;;;;32.50;17.63;;;22.60;99.90;;;;;;4988766;28;20034;-65
2023/09/11 08:24:50;;;;;;;25.50;18.90;;;22.60;99.90;;;;;;4965792;28;20204;-64
2023/09/11 08:27:16;;;;;;;24.67;17.52;;;22.60;99.90;;;;;;4993198;28;20480;-64
2023/09/11 08:29:42;;;;;;;26.52;16.70;;;22.70;99.90;;;;;;4974632;28;20045;-63
2023/09/11 08:32:08;;;;;;;24.83;16.35;;;22.90;99.90;;;;;;5006552;22;20034;-63
2023/09/11 08:34:33;;;;;;;27.02;16.02;;;22.90;99.90;;;;;;5029143;28;20479;-64
2023/09/11 08:37:00;;;;;;;28.20;16.85;;;23.00;99.90;;;;;;5022069;28;20030;-64
2023/09/11 08:39:25;;;;;;;23.40;15.85;;;23.00;99.90;;;;;;5021111;28;20484;-63
2023/09/11 08:41:52;;;;;;;24.23;15.98;;;23.10;99.90;;;;;;5020653;28;20052;-63
2023/09/11 08:44:17;;;;;;;20.98;16.25;;;23.10;99.90;;;;;;5016315;28;20060;-65
2023/09/11 08:46:46;;;;;;;26.08;16.90;;;23.20;99.90;;;;;;5023779;28;20121;-63
2023/09/11 08:49:16;;;;;;;30.08;17.25;;;23.30;99.90;;;;;;5028560;28;20049;-66
2023/09/11 08:51:53;;;;;;;21.60;16.27;;;23.30;99.90;;;;;;5032122;28;20442;-66
2023/09/11 08:54:24;;;;;;;27.52;16.75;;;23.30;99.90;;;;;;5016210;28;20049;-65
2023/09/11 08:56:50;;;;;;;20.92;15.45;;;23.30;99.90;;;;;;5034740;28;20042;-65
2023/09/11 08:59:21;;;;;;;25.02;16.88;;;23.50;99.90;;;;;;5030377;28;20419;-67
2023/09/11 09:01:48;;;;;;;23.10;16.55;;;23.50;99.90;;;;;;5028131;28;20041;-65
2023/09/11 09:04:15;;;;;;;25.30;17.30;;;23.60;99.90;;;;;;5026513;28;20049;-66
2023/09/11 09:06:43;;;;;;;27.70;17.23;;;23.70;99.90;;;;;;5027107;28;20045;-65
2023/09/11 09:09:09;;;;;;;22.23;16.40;;;23.80;99.90;;;;;;5007861;28;20045;-65
2023/09/11 09:11:36;;;;;;;26.92;15.20;;;23.90;99.90;;;;;;5029574;28;20036;-66
2023/09/11 09:14:05;;;;;;;;;;;24.00;99.90;;;;;;5005835;28;20049;-65
2023/09/11 09:16:31;;;;;;;20.58;14.43;;;24.20;99.90;;;;;;5026345;28;19921;-65
2023/09/11 09:18:56;;;;;;;19.75;13.05;;;24.40;99.90;;;;;;5029253;28;20175;-66
2023/09/11 09:21:25;;;;;;;20.35;13.52;;;24.50;99.90;;;;;;5028624;28;20027;-65
2023/09/11 09:23:52;;;;;;;21.23;13.30;;;24.60;99.90;;;;;;5028494;28;20116;-66
2023/09/11 09:26:25;;;;;;;20.10;13.02;;;24.80;99.90;;;;;;5029811;28;20049;-65
2023/09/11 09:28:54;;;;;;;19.15;13.55;;;25.00;99.90;;;;;;4993113;28;20055;-66
2023/09/11 09:31:24;;;;;;;21.17;13.20;;;25.20;99.90;;;;;;5026661;28;20391;-66
2023/09/11 09:33:55;;;;;;;19.10;13.07;;;25.30;99.90;;;;;;5014095;28;20408;-66
2023/09/11 09:36:22;;;;;;;21.15;12.98;;;25.50;99.90;;;;;;5025072;28;20041;-67
2023/09/11 09:38:47;;;;;;;;;;;25.60;99.90;;;;;;5030649;28;20077;-67
2023/09/11 09:41:14;;;;;;;24.37;14.70;;;25.80;99.90;;;;;;5004156;28;19960;-66
2023/09/11 09:43:39;;;;;;;21.45;12.98;;;26.00;99.90;;;;;;5025267;28;20052;-66
2023/09/11 09:46:18;;;;;;;;;;;26.10;99.90;;;;;;5025511;28;20487;-68
2023/09/11 09:48:43;;;;;;;21.45;14.70;;;26.20;99.90;;;;;;5002671;28;19964;-66
2023/09/11 09:51:09;;;;;;;19.48;13.63;;;26.40;99.90;;;;;;5010977;28;20439;-65
2023/09/11 09:53:41;;;;;;;19.25;13.95;;;26.50;99.90;;;;;;5028106;28;20033;-66
2023/09/11 09:56:07;;;;;;;;;;;26.50;99.90;;;;;;5025681;28;20038;-66
2023/09/11 09:58:45;;;;;;;17.33;12.85;;;26.70;99.90;;;;;;5029606;28;20319;-66
2023/09/11 10:01:13;;;;;;;19.63;13.75;;;26.80;99.90;;;;;;5024896;28;20777;-66
2023/09/11 10:03:45;;;;;;;17.77;13.45;;;27.00;99.90;;;;;;5023890;28;20112;-67
2023/09/11 10:06:32;;;;;;;15.95;12.85;;;27.20;99.90;;;;;;5007775;28;20749;-67
2023/09/11 10:09:08;;;;;;;22.60;13.57;;;27.30;99.90;;;;;;5016330;28;20116;-66
2023/09/11 10:11:35;;;;;;;19.40;12.68;;;27.40;99.90;;;;;;5020237;28;20510;-66
2023/09/11 10:14:03;;;;;;;18.55;13.05;;;27.40;99.90;;;;;;5024505;28;20387;-67
2023/09/11 10:16:30;;;;;;;19.73;12.93;;;27.50;99.90;;;;;;5029961;28;20034;-67
2023/09/11 10:18:58;;;;;;;16.33;12.57;;;27.50;99.90;;;;;;5011853;28;20041;-67
2023/09/11 10:21:24;;;;;;;21.30;12.93;;;27.50;99.90;;;;;;5028991;28;20045;-66
2023/09/11 10:23:50;;;;;;;17.30;12.35;;;27.70;99.90;;;;;;5032345;28;20036;-66
2023/09/11 10:26:27;;;;;;;19.02;12.68;;;27.70;99.90;;;;;;5029808;28;20038;-66
2023/09/11 10:28:55;;;;;;;23.70;14.70;;;27.80;99.90;;;;;;5031949;28;20175;-66
2023/09/11 10:31:25;;;;;;;18.27;14.60;;;27.90;99.90;;;;;;5031082;28;20506;-67
2023/09/11 10:34:02;;;;;;;23.65;14.70;;;27.90;99.90;;;;;;5032223;28;20447;-66
2023/09/11 10:36:38;;;;;;;19.88;14.98;;;27.90;99.90;;;;;;5001266;28;20354;-66
2023/09/11 10:39:06;;;;;;;26.58;17.55;;;28.00;99.90;;;;;;5026769;28;20121;-66
2023/09/11 10:41:32;;;;;;;26.00;16.50;;;28.10;99.90;;;;;;5031412;28;20544;-66
2023/09/11 10:43:58;;;;;;;24.63;16.08;;;28.10;99.90;;;;;;5017637;28;20427;-66
2023/09/11 10:46:23;;;;;;;23.42;15.80;;;28.20;99.90;;;;;;5024265;28;20029;-66
2023/09/11 10:48:53;;;;;;;31.35;16.25;;;28.20;99.90;;;;;;5020305;28;20381;-66
2023/09/11 10:51:19;;;;;;;26.38;17.40;;;28.30;99.90;;;;;;5021798;28;20516;-66
2023/09/11 10:53:48;;;;;;;23.30;17.50;;;28.40;99.90;;;;;;5017503;28;20045;-66
2023/09/11 10:56:14;;;;;;;23.58;16.65;;;28.40;99.90;;;;;;5032262;28;20041;-66
2023/09/11 10:58:40;;;;;;;20.98;15.93;;;28.40;99.90;;;;;;5029343;28;20045;-66
2023/09/11 11:01:06;;;;;;;27.40;16.33;;;28.40;99.90;;;;;;5013092;28;20399;-66
2023/09/11 11:03:32;;;;;;;25.70;17.20;;;28.50;99.90;;;;;;5032245;28;20037;-66
2023/09/11 11:05:59;;;;;;;15.20;11.27;;;28.50;99.90;;;;;;5012141;28;20056;-66
2023/09/11 11:08:25;;;;;;;15.98;11.18;;;28.60;99.90;;;;;;5035827;28;20057;-66
2023/09/11 11:10:51;;;;;;;;;;;28.80;99.90;;;;;;5018182;28;20156;-66
2023/09/11 11:13:17;;;;;;;17.35;13.13;;;28.90;99.90;;;;;;5022077;28;20383;-66
2023/09/11 11:15:43;;;;;;;14.63;11.02;;;29.00;99.90;;;;;;5004985;28;20123;-66
2023/09/11 11:18:25;;;;;;;18.38;10.55;;;29.10;99.90;;;;;;5029826;28;20390;-66
2023/09/11 11:20:59;;;;;;;18.98;12.02;;;29.20;99.90;;;;;;5007373;28;20122;-66
2023/09/11 11:23:29;;;;;;;19.85;11.20;;;29.20;99.90;;;;;;5032786;28;20045;-66
2023/09/11 11:26:00;;;;;;;14.40;11.45;;;29.30;99.90;;;;;;5033372;28;20403;-66
2023/09/11 11:28:25;;;;;;;14.82;9.68;;;29.50;98.90;;;;;;5016191;28;20046;-66
2023/09/11 11:30:52;;;;;;;15.38;9.68;;;29.40;99.90;;;;;;5031601;28;20094;-66
2023/09/11 11:33:23;;;;;;;14.48;10.13;;;29.40;99.90;;;;;;5030634;28;20434;-67
2023/09/11 11:35:50;;;;;;;12.93;9.20;;;29.50;99.90;;;;;;5013654;28;20507;-66
2023/09/11 11:38:19;;;;;;;11.98;9.77;;;29.60;99.80;;;;;;5024047;28;20117;-66
2023/09/11 11:40:47;;;;;;;14.95;10.82;;;29.60;99.40;;;;;;5025451;28;20431;-66
2023/09/11 11:43:14;;;;;;;16.50;9.65;;;29.60;99.00;;;;;;5028521;28;20049;-64
2023/09/11 11:45:47;;;;;;;16.23;10.63;;;29.60;99.00;;;;;;5031689;28;20051;-64
2023/09/11 11:48:17;;;;;;;15.68;9.60;;;29.50;98.90;;;;;;4994504;28;20042;-64
2023/09/11 11:50:44;;;;;;;16.13;10.25;;;29.60;98.80;;;;;;5004645;28;20045;-64
2023/09/11 11:53:18;;;;;;;13.98;9.55;;;29.50;99.20;;;;;;5017751;28;20516;-64
2023/09/11 11:55:44;;;;;;;14.93;9.68;;;29.60;99.00;;;;;;5025890;28;20040;-64
2023/09/11 11:58:12;;;;;;;13.02;9.70;;;29.60;99.10;;;;;;5028325;28;20502;-64
2023/09/11 12:00:54;;;;;;;14.45;9.35;;;29.80;99.00;;;;;;5025494;28;20041;-65
2023/09/11 12:03:20;;;;;;;15.10;8.82;;;29.80;99.10;;;;;;5031315;28;20033;-65
2023/09/11 12:05:45;;;;;;;16.40;9.57;;;29.80;98.80;;;;;;5026447;28;20047;-65
2023/09/11 12:08:12;;;;;;;14.70;9.77;;;29.70;98.70;;;;;;5026424;28;20123;-64
2023/09/11 12:10:48;;;;;;;15.18;10.60;;;29.70;99.00;;;;;;5021811;28;20045;-64
2023/09/11 12:13:17;;;;;;;15.20;10.52;;;29.70;98.90;;;;;;5026218;28;20511;-65
2023/09/11 12:15:51;;;;;;;17.63;10.73;;;29.60;99.00;;;;;;5024692;28;20514;-65
2023/09/11 12:18:17;;;;;;;16.80;10.38;;;29.50;99.20;;;;;;5030698;28;20045;-65
2023/09/11 12:20:55;;;;;;;15.48;10.15;;;29.60;99.10;;;;;;5013722;28;20124;-65
2023/09/11 12:23:21;;;;;;;13.43;9.52;;;29.50;98.90;;;;;;5031125;28;20080;-65
2023/09/11 12:25:48;;;;;;;15.00;8.18;;;29.40;98.90;;;;;;5014272;28;20041;-65
2023/09/11 12:28:14;;;;;;;10.27;7.88;;;29.40;99.50;;;;;;5031282;28;20128;-65
2023/09/11 12:30:43;;;;;;;12.43;7.38;;;29.40;99.70;;;;;;5021353;28;20056;-65